createdAt,value
2023-05-21T00:02:20.048Z,65.74
2023-05-21T00:04:47.889Z,65.83
2023-05-21T00:07:15.677Z,66.26
2023-05-21T00:09:42.742Z,66.16
2023-05-21T00:12:10.377Z,66.10
2023-05-21T00:14:37.627Z,66.05
2023-05-21T00:17:05.010Z,66.05
2023-05-21T00:19:33.943Z,66.06
2023-05-21T00:22:04.645Z,66.36
2023-05-21T00:24:31.915Z,66.55
2023-05-21T00:26:58.961Z,66.48
2023-05-21T00:29:27.894Z,66.50
2023-05-21T00:31:56.017Z,66.67
2023-05-21T00:34:23.426Z,66.61
2023-05-21T00:36:50.586Z,66.57
2023-05-21T00:39:17.886Z,66.68
2023-05-21T00:41:46.836Z,66.79
2023-05-21T00:44:14.205Z,66.74
2023-05-21T00:46:41.744Z,66.97
2023-05-21T00:49:11.861Z,66.97
2023-05-21T00:51:39.013Z,67.04
2023-05-21T00:54:06.140Z,67.08
2023-05-21T00:56:33.383Z,67.07
2023-05-21T00:59:00.597Z,67.14
2023-05-21T01:01:27.934Z,67.08
2023-05-21T01:03:58.073Z,67.10
2023-05-21T01:06:25.211Z,67.08
2023-05-21T01:08:52.410Z,67.17
2023-05-21T01:11:21.770Z,67.33
2023-05-21T01:13:50.318Z,67.31
2023-05-21T01:16:17.973Z,67.34
2023-05-21T01:18:45.462Z,67.43
2023-05-21T01:21:14.040Z,67.59
2023-05-21T01:23:41.209Z,67.51
2023-05-21T01:26:08.657Z,67.73
2023-05-21T01:28:35.807Z,67.76
2023-05-21T01:31:31.857Z,67.59
2023-05-21T01:34:03.589Z,67.64
2023-05-21T01:36:36.669Z,67.67
2023-05-21T01:39:14.494Z,68.02
2023-05-21T01:41:45.224Z,68.39
2023-05-21T01:44:13.684Z,68.13
2023-05-21T01:46:40.787Z,68.06
2023-05-21T01:49:08.840Z,68.18
2023-05-21T01:51:36.362Z,68.16
2023-05-21T01:54:03.783Z,68.21
2023-05-21T01:56:33.998Z,68.51
2023-05-21T01:59:01.227Z,68.17
2023-05-21T02:01:30.579Z,68.11
2023-05-21T02:03:58.448Z,68.44
2023-05-21T02:06:25.654Z,68.55
2023-05-21T02:08:52.724Z,68.59
2023-05-21T02:11:19.828Z,68.23
2023-05-21T02:13:46.910Z,68.48
2023-05-21T02:16:16.106Z,68.29
2023-05-21T02:18:47.162Z,68.21
2023-05-21T02:21:14.192Z,68.26
2023-05-21T02:23:42.313Z,68.32
2023-05-21T02:26:09.361Z,68.29
2023-05-21T02:28:36.600Z,68.38
2023-05-21T02:31:04.137Z,68.36
2023-05-21T02:33:31.318Z,68.77
2023-05-21T02:35:58.511Z,68.68
2023-05-21T02:38:26.138Z,68.41
2023-05-21T02:40:53.421Z,68.51
2023-05-21T02:43:20.721Z,68.29
2023-05-21T02:45:48.077Z,68.05
2023-05-21T02:48:15.225Z,68.17
2023-05-21T02:50:42.349Z,68.20
2023-05-21T02:53:09.476Z,68.09
2023-05-21T02:55:36.823Z,67.95
2023-05-21T02:58:04.196Z,68.15
2023-05-21T03:00:31.347Z,68.15
2023-05-21T03:02:58.493Z,68.55
2023-05-21T03:05:26.029Z,68.80
2023-05-21T03:07:53.578Z,69.41
2023-05-21T03:10:20.779Z,70.23
2023-05-21T03:12:47.970Z,70.76
2023-05-21T03:15:15.081Z,71.05
2023-05-21T03:17:42.621Z,71.34
2023-05-21T03:20:16.412Z,71.57
2023-05-21T03:22:44.723Z,71.95
2023-05-21T03:25:12.839Z,72.09
2023-05-21T03:27:40.045Z,72.08
2023-05-21T03:30:07.832Z,72.47
2023-05-21T03:32:38.142Z,72.56
2023-05-21T03:35:06.048Z,72.33
2023-05-21T03:37:33.129Z,72.46
2023-05-21T03:40:00.267Z,72.08
2023-05-21T03:42:27.408Z,72.46
2023-05-21T03:44:54.608Z,72.10
2023-05-21T03:47:21.724Z,72.08
2023-05-21T03:49:48.834Z,71.95
2023-05-21T03:52:15.984Z,71.79
2023-05-21T03:54:43.110Z,72.12
2023-05-21T03:57:10.157Z,71.86
2023-05-21T03:59:37.225Z,72.03
2023-05-21T04:02:04.688Z,71.90
2023-05-21T04:04:33.953Z,72.20
2023-05-21T04:07:01.194Z,72.49
2023-05-21T04:09:28.263Z,72.38
2023-05-21T04:11:55.502Z,72.54
2023-05-21T04:14:23.497Z,72.46
2023-05-21T04:16:50.620Z,72.06
2023-05-21T04:19:17.739Z,72.18
2023-05-21T04:21:45.203Z,72.21
2023-05-21T04:24:12.304Z,71.93
2023-05-21T04:26:42.552Z,72.16
2023-05-21T04:29:10.191Z,72.08
2023-05-21T04:31:37.403Z,71.92
2023-05-21T04:34:05.220Z,72.23
2023-05-21T04:36:33.969Z,72.16
2023-05-21T04:39:01.761Z,72.26
2023-05-21T04:41:29.323Z,72.00
2023-05-21T04:43:56.543Z,71.81
2023-05-21T04:46:27.055Z,72.06
2023-05-21T04:48:57.117Z,71.62
2023-05-21T04:51:27.081Z,71.67
2023-05-21T04:53:54.491Z,71.48
2023-05-21T04:56:26.495Z,71.45
2023-05-21T04:58:54.594Z,71.45
2023-05-21T05:01:27.226Z,71.52
2023-05-21T05:03:54.540Z,71.20
2023-05-21T05:06:22.512Z,71.19
2023-05-21T05:08:49.721Z,71.18
2023-05-21T05:11:16.871Z,71.11
2023-05-21T05:13:44.475Z,70.94
2023-05-21T05:16:13.088Z,71.37
2023-05-21T05:18:40.329Z,71.14
2023-05-21T05:21:07.388Z,70.65
2023-05-21T05:23:34.706Z,70.35
2023-05-21T05:26:01.834Z,70.01
2023-05-21T05:28:28.995Z,70.41
2023-05-21T05:30:56.078Z,70.12
2023-05-21T05:33:23.428Z,69.98
2023-05-21T05:35:50.481Z,69.60
2023-05-21T05:38:17.747Z,69.62
2023-05-21T05:40:44.911Z,69.93
2023-05-21T05:43:12.053Z,69.87
2023-05-21T05:45:39.358Z,69.77
2023-05-21T05:48:07.120Z,69.91
2023-05-21T05:50:34.292Z,70.11
2023-05-21T05:53:01.381Z,70.01
2023-05-21T05:55:28.803Z,70.39
2023-05-21T05:57:55.988Z,70.11
2023-05-21T06:00:23.313Z,70.11
2023-05-21T06:02:50.490Z,70.03
2023-05-21T06:05:17.833Z,69.82
2023-05-21T06:07:45.000Z,70.05
2023-05-21T06:10:12.182Z,70.10
2023-05-21T06:12:39.352Z,70.00
2023-05-21T06:15:07.023Z,69.82
2023-05-21T06:17:34.198Z,69.97
2023-05-21T06:20:01.315Z,70.14
2023-05-21T06:22:28.738Z,70.16
2023-05-21T06:24:55.874Z,70.00
2023-05-21T06:27:23.004Z,69.78
2023-05-21T06:29:50.086Z,69.87
2023-05-21T06:32:17.356Z,69.95
2023-05-21T06:34:44.502Z,69.89
2023-05-21T06:37:11.548Z,69.70
2023-05-21T06:39:38.624Z,69.37
2023-05-21T06:42:06.152Z,69.10
2023-05-21T06:44:33.226Z,69.47
2023-05-21T06:47:00.286Z,68.88
2023-05-21T06:49:27.326Z,68.86
2023-05-21T06:51:54.387Z,68.97
2023-05-21T06:54:21.540Z,68.91
2023-05-21T06:56:48.745Z,68.58
2023-05-21T06:59:16.040Z,68.62
2023-05-21T07:01:44.292Z,68.20
2023-05-21T07:04:11.834Z,68.27
2023-05-21T07:06:39.124Z,68.59
2023-05-21T07:09:06.366Z,68.54
2023-05-21T07:11:33.543Z,68.14
2023-05-21T07:14:01.894Z,67.91
2023-05-21T07:16:29.154Z,67.90
2023-05-21T07:18:56.324Z,67.43
2023-05-21T07:21:24.394Z,67.46
2023-05-21T07:23:51.490Z,67.69
2023-05-21T07:26:18.695Z,67.51
2023-05-21T07:28:46.065Z,67.61
2023-05-21T07:31:13.417Z,67.60
2023-05-21T07:33:40.759Z,67.36
2023-05-21T07:36:07.985Z,67.33
2023-05-21T07:38:35.406Z,67.15
2023-05-21T07:41:02.612Z,67.17
2023-05-21T07:43:29.734Z,67.18
2023-05-21T07:45:56.832Z,67.13
2023-05-21T07:48:24.034Z,67.31
2023-05-21T07:50:52.743Z,67.12
2023-05-21T07:53:20.226Z,67.31
2023-05-21T07:55:48.269Z,67.39
2023-05-21T07:58:17.454Z,67.22
2023-05-21T08:00:47.146Z,67.26
2023-05-21T08:03:18.315Z,67.00
2023-05-21T08:05:48.833Z,66.81
2023-05-21T08:08:17.554Z,66.80
2023-05-21T08:10:45.116Z,66.56
2023-05-21T08:13:13.216Z,66.37
2023-05-21T08:15:40.383Z,66.57
2023-05-21T08:18:07.729Z,66.58
2023-05-21T08:20:34.903Z,66.07
2023-05-21T08:23:02.089Z,66.15
2023-05-21T08:25:29.304Z,65.94
2023-05-21T08:27:56.581Z,65.90
2023-05-21T08:30:23.817Z,66.21
2023-05-21T08:32:50.947Z,65.76
2023-05-21T08:35:18.105Z,65.41
2023-05-21T08:37:45.192Z,65.43
2023-05-21T08:40:12.786Z,65.49
2023-05-21T08:42:44.722Z,65.28
2023-05-21T08:45:14.222Z,65.78
2023-05-21T08:47:43.751Z,65.17
2023-05-21T08:50:13.905Z,64.96
2023-05-21T08:52:41.542Z,64.65
2023-05-21T08:55:10.603Z,64.92
2023-05-21T08:57:38.329Z,64.53
2023-05-21T09:00:07.386Z,64.41
2023-05-21T09:02:35.161Z,64.62
2023-05-21T09:05:03.534Z,64.42
2023-05-21T09:07:31.941Z,64.49
2023-05-21T09:10:05.344Z,64.46
2023-05-21T09:12:32.947Z,64.39
2023-05-21T09:15:01.399Z,65.08
2023-05-21T09:17:29.054Z,65.40
2023-05-21T09:20:10.032Z,64.87
2023-05-21T09:22:40.488Z,65.26
2023-05-21T09:25:09.258Z,65.29
2023-05-21T09:27:36.635Z,64.39
2023-05-21T09:30:05.612Z,64.35
2023-05-21T09:32:32.799Z,64.56
2023-05-21T09:35:08.131Z,64.32
2023-05-21T09:37:47.469Z,64.21
2023-05-21T09:40:19.708Z,64.14
2023-05-21T09:42:51.539Z,64.09
2023-05-21T09:45:24.021Z,63.98
2023-05-21T09:47:53.147Z,63.83
2023-05-21T09:50:21.170Z,63.41
2023-05-21T09:52:50.575Z,63.53
2023-05-21T09:55:17.709Z,63.43
2023-05-21T09:57:48.139Z,63.26
2023-05-21T10:00:22.892Z,63.05
2023-05-21T10:02:55.125Z,62.60
2023-05-21T10:05:27.445Z,62.96
2023-05-21T10:08:02.887Z,62.95
2023-05-21T10:10:31.752Z,63.08
2023-05-21T10:13:07.082Z,62.83
2023-05-21T10:15:46.523Z,62.51
2023-05-21T10:18:15.549Z,62.48
2023-05-21T10:20:43.184Z,61.90
2023-05-21T10:23:10.847Z,61.52
2023-05-21T10:25:38.003Z,61.59
2023-05-21T10:28:07.237Z,61.14
2023-05-21T10:30:37.129Z,61.70
2023-05-21T10:33:04.758Z,61.44
2023-05-21T10:35:33.841Z,62.02
2023-05-21T10:38:04.749Z,61.64
2023-05-21T10:40:32.029Z,61.76
2023-05-21T10:43:14.779Z,61.00
2023-05-21T10:45:56.316Z,61.46
2023-05-21T10:48:29.705Z,61.90
2023-05-21T10:51:05.136Z,61.41
2023-05-21T10:53:48.454Z,61.57
2023-05-21T10:56:23.273Z,61.22
2023-05-21T10:59:15.501Z,60.61
2023-05-21T11:01:43.120Z,60.85
2023-05-21T11:04:12.434Z,60.84
2023-05-21T11:06:39.968Z,60.23
2023-05-21T11:09:14.263Z,60.62
2023-05-21T11:11:58.328Z,60.69
2023-05-21T11:14:39.819Z,60.60
2023-05-21T11:17:16.519Z,60.64
2023-05-21T11:19:47.551Z,60.45
2023-05-21T11:22:25.705Z,60.85
2023-05-21T11:24:54.836Z,60.73
2023-05-21T11:27:42.181Z,60.88
2023-05-21T11:30:16.937Z,61.74
2023-05-21T11:33:08.621Z,61.70
2023-05-21T11:35:47.834Z,61.41
2023-05-21T11:38:14.994Z,61.72
2023-05-21T11:40:55.458Z,61.18
2023-05-21T11:43:22.930Z,60.95
2023-05-21T11:45:53.001Z,60.57
2023-05-21T11:48:26.720Z,61.32
2023-05-21T11:50:54.964Z,60.88
2023-05-21T11:53:22.245Z,61.13
2023-05-21T11:55:50.865Z,60.64
2023-05-21T11:58:19.512Z,60.40
2023-05-21T12:03:14.564Z,59.85
2023-05-21T12:05:48.953Z,59.85
2023-05-21T12:08:27.922Z,60.13
2023-05-21T12:11:02.043Z,60.14
2023-05-21T12:13:29.289Z,60.34
2023-05-21T12:15:56.538Z,60.04
2023-05-21T12:18:25.299Z,60.12
2023-05-21T12:20:52.577Z,59.26
2023-05-21T12:23:28.428Z,59.53
2023-05-21T12:25:56.455Z,59.61
2023-05-21T12:28:24.985Z,60.03
2023-05-21T12:30:53.712Z,60.09
2023-05-21T12:33:23.118Z,59.36
2023-05-21T12:35:52.655Z,59.28
2023-05-21T12:38:19.898Z,59.15
2023-05-21T12:40:47.150Z,58.72
2023-05-21T12:43:14.260Z,57.93
2023-05-21T12:45:41.588Z,57.50
2023-05-21T12:48:09.011Z,57.74
2023-05-21T12:50:40.914Z,58.42
2023-05-21T12:53:09.647Z,58.16
2023-05-21T12:55:36.701Z,58.51
2023-05-21T12:58:09.359Z,58.86
2023-05-21T13:00:37.307Z,58.71
2023-05-21T13:03:06.819Z,58.23
2023-05-21T13:05:34.663Z,58.55
2023-05-21T13:08:02.117Z,58.83
2023-05-21T13:10:29.198Z,58.19
2023-05-21T13:12:56.728Z,58.20
2023-05-21T13:15:23.930Z,57.98
2023-05-21T13:17:52.044Z,58.23
2023-05-21T13:20:22.107Z,57.99
2023-05-21T13:22:51.188Z,57.43
2023-05-21T13:25:29.918Z,57.45
2023-05-21T13:27:58.372Z,57.54
2023-05-21T13:30:25.701Z,57.60
2023-05-21T13:32:53.083Z,57.66
2023-05-21T13:35:20.728Z,57.56
2023-05-21T13:37:48.095Z,57.70
2023-05-21T13:40:16.481Z,56.66
2023-05-21T13:42:49.001Z,56.64
2023-05-21T13:45:18.822Z,56.57
2023-05-21T13:47:46.976Z,55.98
2023-05-21T13:50:14.617Z,56.45
2023-05-21T13:52:42.236Z,56.31
2023-05-21T13:55:10.051Z,56.09
2023-05-21T13:57:37.339Z,55.90
2023-05-21T14:00:05.077Z,55.15
2023-05-21T14:02:32.324Z,55.23
2023-05-21T14:04:59.387Z,55.54
2023-05-21T14:07:27.140Z,56.02
2023-05-21T14:09:54.285Z,56.22
2023-05-21T14:12:21.909Z,55.12
2023-05-21T14:14:50.032Z,54.54
2023-05-21T14:17:17.170Z,55.10
2023-05-21T14:19:44.313Z,54.95
2023-05-21T14:22:11.473Z,54.59
2023-05-21T14:24:38.665Z,54.53
2023-05-21T14:27:05.876Z,54.67
2023-05-21T14:29:33.610Z,54.40
2023-05-21T14:32:00.864Z,54.57
2023-05-21T14:34:27.996Z,54.63
2023-05-21T14:36:55.070Z,54.26
2023-05-21T14:39:22.491Z,54.09
2023-05-21T14:41:50.307Z,54.61
2023-05-21T14:44:17.367Z,54.74
2023-05-21T14:46:44.455Z,54.79
2023-05-21T14:49:12.422Z,54.84
2023-05-21T14:51:39.530Z,54.72
2023-05-21T14:54:06.651Z,54.11
2023-05-21T14:56:33.734Z,53.83
2023-05-21T14:59:00.848Z,54.00
2023-05-21T15:01:28.147Z,53.80
2023-05-21T15:03:57.123Z,54.00
2023-05-21T15:06:24.551Z,54.24
2023-05-21T15:08:51.587Z,53.93
2023-05-21T15:11:18.677Z,54.09
2023-05-21T15:13:46.601Z,53.00
2023-05-21T15:16:13.805Z,52.20
2023-05-21T15:18:40.881Z,51.18
2023-05-21T15:21:08.105Z,50.50
2023-05-21T15:23:35.169Z,48.81
2023-05-21T15:26:02.282Z,47.96
2023-05-21T15:28:29.341Z,48.25
2023-05-21T15:30:56.520Z,48.22
2023-05-21T15:33:23.675Z,47.93
2023-05-21T15:35:51.105Z,47.67
2023-05-21T15:38:18.250Z,48.68
2023-05-21T15:40:45.392Z,48.36
2023-05-21T15:43:12.497Z,48.61
2023-05-21T15:45:39.843Z,48.17
2023-05-21T15:48:07.382Z,48.39
2023-05-21T15:50:35.947Z,48.68
2023-05-21T15:53:04.287Z,49.22
2023-05-21T15:55:35.091Z,48.50
2023-05-21T15:58:03.922Z,48.53
2023-05-21T16:00:31.079Z,48.25
2023-05-21T16:02:58.391Z,48.42
2023-05-21T16:05:26.306Z,48.16
2023-05-21T16:07:53.616Z,48.41
2023-05-21T16:10:21.674Z,47.59
2023-05-21T16:12:48.862Z,46.93
2023-05-21T16:15:16.133Z,46.98
2023-05-21T16:17:43.254Z,47.21
2023-05-21T16:20:10.900Z,47.25
2023-05-21T16:22:38.023Z,47.38
2023-05-21T16:25:05.666Z,47.33
2023-05-21T16:27:32.782Z,47.47
2023-05-21T16:30:00.050Z,48.03
2023-05-21T16:32:28.631Z,48.29
2023-05-21T16:34:55.871Z,48.63
2023-05-21T16:37:22.961Z,48.46
2023-05-21T16:39:50.091Z,48.68
2023-05-21T16:42:17.164Z,48.66
2023-05-21T16:44:44.257Z,48.85
2023-05-21T16:47:11.298Z,48.95
2023-05-21T16:49:38.453Z,49.14
2023-05-21T16:52:05.861Z,49.63
2023-05-21T16:54:33.682Z,49.56
2023-05-21T16:57:01.181Z,49.85
2023-05-21T16:59:28.826Z,49.84
2023-05-21T17:01:55.960Z,50.37
2023-05-21T17:04:23.299Z,50.30
2023-05-21T17:06:50.456Z,50.30
2023-05-21T17:09:18.793Z,50.29
2023-05-21T17:11:46.202Z,50.20
2023-05-21T17:14:17.536Z,50.07
2023-05-21T17:16:50.947Z,50.07
2023-05-21T17:19:18.008Z,50.11
2023-05-21T17:21:45.100Z,50.82
2023-05-21T17:24:12.497Z,51.21
2023-05-21T17:26:39.659Z,50.86
2023-05-21T17:29:06.719Z,51.14
2023-05-21T17:31:34.191Z,51.58
2023-05-21T17:34:01.376Z,51.60
2023-05-21T17:36:28.737Z,51.78
2023-05-21T17:38:55.850Z,52.36
2023-05-21T17:41:23.684Z,52.80
2023-05-21T17:43:50.936Z,52.82
2023-05-21T17:46:18.789Z,52.77
2023-05-21T17:48:46.017Z,52.55
2023-05-21T17:51:13.330Z,53.07
2023-05-21T17:53:41.316Z,52.71
2023-05-21T17:56:08.520Z,52.64
2023-05-21T17:58:35.569Z,53.03
2023-05-21T18:01:02.922Z,53.10
2023-05-21T18:03:30.218Z,52.95
2023-05-21T18:05:57.295Z,53.34
2023-05-21T18:08:24.428Z,52.98
2023-05-21T18:10:51.492Z,53.37
2023-05-21T18:13:18.575Z,53.35
2023-05-21T18:15:45.727Z,53.92
2023-05-21T18:18:20.567Z,53.99
2023-05-21T18:20:49.526Z,54.42
2023-05-21T18:23:20.956Z,54.75
2023-05-21T18:25:48.190Z,54.86
2023-05-21T18:28:15.291Z,54.78
2023-05-21T18:30:42.435Z,54.74
2023-05-21T18:33:09.648Z,54.91
2023-05-21T18:35:36.781Z,55.41
2023-05-21T18:38:04.404Z,55.68
2023-05-21T18:40:33.374Z,56.22
2023-05-21T18:43:01.019Z,56.08
2023-05-21T18:45:28.324Z,56.08
2023-05-21T18:47:55.896Z,56.61
2023-05-21T18:50:23.078Z,56.83
2023-05-21T18:52:56.359Z,56.68
2023-05-21T18:55:23.614Z,57.33
2023-05-21T18:57:51.028Z,56.96
2023-05-21T19:00:18.532Z,57.37
2023-05-21T19:02:46.912Z,57.33
2023-05-21T19:05:14.633Z,57.58
2023-05-21T19:07:42.124Z,57.96
2023-05-21T19:10:10.952Z,57.99
2023-05-21T19:12:39.691Z,58.74
2023-05-21T19:15:07.610Z,58.87
2023-05-21T19:17:36.332Z,59.13
2023-05-21T19:20:05.583Z,59.65
2023-05-21T19:22:32.915Z,60.37
2023-05-21T19:25:00.850Z,60.86
2023-05-21T19:27:29.571Z,61.33
2023-05-21T19:29:56.774Z,61.95
2023-05-21T19:32:24.110Z,61.72
2023-05-21T19:34:52.371Z,62.69
2023-05-21T19:37:19.626Z,62.61
2023-05-21T19:39:50.257Z,63.19
2023-05-21T19:42:21.616Z,63.47
2023-05-21T19:44:48.869Z,63.59
2023-05-21T19:47:16.119Z,63.82
2023-05-21T19:49:43.423Z,63.96
2023-05-21T19:52:10.713Z,63.90
2023-05-21T19:54:37.879Z,64.53
2023-05-21T19:57:05.273Z,64.85
2023-05-21T19:59:32.723Z,64.67
2023-05-21T20:01:59.845Z,64.92
2023-05-21T20:04:27.349Z,64.61
2023-05-21T20:06:54.752Z,65.46
2023-05-21T20:09:22.027Z,65.08
2023-05-21T20:11:49.169Z,65.67
2023-05-21T20:14:16.470Z,65.29
2023-05-21T20:16:47.160Z,65.38
2023-05-21T20:19:17.357Z,65.44
2023-05-21T20:21:44.814Z,66.31
2023-05-21T20:24:11.964Z,66.10
2023-05-21T20:26:40.138Z,66.10
2023-05-21T20:29:08.190Z,66.61
2023-05-21T20:31:36.171Z,66.30
2023-05-21T20:34:07.901Z,66.69
2023-05-21T20:36:36.177Z,66.59
2023-05-21T20:39:03.449Z,66.95
2023-05-21T20:41:39.824Z,67.13
2023-05-21T20:44:06.964Z,66.83
2023-05-21T20:46:41.331Z,66.76
2023-05-21T20:49:09.932Z,66.95
2023-05-21T20:51:37.252Z,67.04
2023-05-21T20:54:04.592Z,67.17
2023-05-21T20:56:41.524Z,67.19
2023-05-21T20:59:11.375Z,66.96
2023-05-21T21:01:39.446Z,67.46
2023-05-21T21:04:06.855Z,67.75
2023-05-21T21:06:35.080Z,67.69
2023-05-21T21:09:02.305Z,67.82
2023-05-21T21:11:29.667Z,67.88
2023-05-21T21:13:59.936Z,67.36
2023-05-21T21:16:27.126Z,67.93
2023-05-21T21:18:54.514Z,67.63
2023-05-21T21:21:22.176Z,68.01
2023-05-21T21:23:49.950Z,68.02
2023-05-21T21:26:17.902Z,67.93
2023-05-21T21:28:46.512Z,68.17
2023-05-21T21:31:14.254Z,68.04
2023-05-21T21:33:41.448Z,68.31
2023-05-21T21:36:12.461Z,68.35
2023-05-21T21:38:39.494Z,68.45
2023-05-21T21:41:07.895Z,69.04
2023-05-21T21:43:35.015Z,68.97
2023-05-21T21:46:02.304Z,68.78
2023-05-21T21:48:29.608Z,69.05
2023-05-21T21:50:57.083Z,69.34
2023-05-21T21:53:24.212Z,69.29
2023-05-21T21:55:51.775Z,69.64
2023-05-21T21:58:19.161Z,69.52
2023-05-21T22:00:46.479Z,69.97
2023-05-21T22:03:14.773Z,69.55
2023-05-21T22:05:42.784Z,69.69
2023-05-21T22:08:10.229Z,70.17
2023-05-21T22:10:38.564Z,69.71
2023-05-21T22:13:05.910Z,69.81
2023-05-21T22:15:33.016Z,70.13
2023-05-21T22:18:02.539Z,69.76
2023-05-21T22:20:29.907Z,70.03
2023-05-21T22:22:57.650Z,70.46
2023-05-21T22:25:24.930Z,70.10
2023-05-21T22:27:52.622Z,70.27
2023-05-21T22:30:20.298Z,70.51
2023-05-21T22:32:48.769Z,70.49
2023-05-21T22:35:16.042Z,70.32
2023-05-21T22:37:43.110Z,69.72
2023-05-21T22:40:10.596Z,69.16
2023-05-21T22:42:38.503Z,68.56
2023-05-21T22:45:06.057Z,68.51
2023-05-21T22:47:33.188Z,68.10
2023-05-21T22:50:04.453Z,67.84
2023-05-21T22:52:32.116Z,67.07
2023-05-21T22:55:00.797Z,66.87
2023-05-21T22:57:28.177Z,65.35
2023-05-21T22:59:55.304Z,64.62
2023-05-21T23:02:22.579Z,63.93
2023-05-21T23:04:49.853Z,63.28
2023-05-21T23:07:17.013Z,63.10
2023-05-21T23:09:44.012Z,62.79
2023-05-21T23:12:11.315Z,62.25
2023-05-21T23:14:38.396Z,61.87
2023-05-21T23:17:05.794Z,61.78
2023-05-21T23:19:33.100Z,61.33
2023-05-21T23:22:00.687Z,61.06
2023-05-21T23:24:29.722Z,61.09
2023-05-21T23:27:02.066Z,60.79
2023-05-21T23:29:30.501Z,60.28
2023-05-21T23:31:58.274Z,60.21
2023-05-21T23:34:25.939Z,60.00
2023-05-21T23:36:53.092Z,60.07
2023-05-21T23:39:20.167Z,60.04
2023-05-21T23:41:47.302Z,59.91
2023-05-21T23:44:15.606Z,59.63
2023-05-21T23:46:45.868Z,59.43
2023-05-21T23:49:13.056Z,59.76
2023-05-21T23:51:40.179Z,59.53
2023-05-21T23:54:08.275Z,59.10
2023-05-21T23:56:35.653Z,59.15
2023-05-21T23:59:02.771Z,59.35
